Time;durP1;ratioP1;P1;durP2;ratioP2;P2;SDS_P1;SDS_P2;PMS_P1;PMS_P2;Temp;Humidity;BMP_temperature;BMP_pressure;BME280_temperature;BME280_humidity;BME280_pressure;Samples;Min_cycle;Max_cycle;Signal;HPM_P1;HPM_P2
2022/11/23 00:01:16;;;;;;;57.03;29.40;;;;;;;2.09;100.00;100109.28;4974763;28;20745;-70
2022/11/23 00:03:42;;;;;;;56.27;29.97;;;;;;;2.11;100.00;100109.34;4974283;28;20682;-70
2022/11/23 00:06:08;;;;;;;55.77;29.53;;;;;;;2.13;100.00;100120.38;4970771;28;20219;-70
2022/11/23 00:08:33;;;;;;;57.10;29.27;;;;;;;2.13;100.00;100107.75;4974582;28;20188;-70
2022/11/23 00:10:59;;;;;;;56.57;29.33;;;;;;;2.11;100.00;100114.41;4971613;28;20199;-70
2022/11/23 00:13:25;;;;;;;54.30;28.63;;;;;;;2.13;100.00;100111.13;4969120;28;20203;-70
2022/11/23 00:15:50;;;;;;;53.00;27.90;;;;;;;2.15;100.00;100119.63;4962701;28;20215;-70
2022/11/23 00:18:16;;;;;;;52.47;28.03;;;;;;;2.16;100.00;100121.34;4973319;28;20223;-70
2022/11/23 00:20:41;;;;;;;54.70;28.60;;;;;;;2.14;100.00;100120.44;4974785;28;20262;-70
2022/11/23 00:23:07;;;;;;;50.87;28.57;;;;;;;2.17;100.00;100117.16;4972257;28;20224;-70
2022/11/23 00:25:33;;;;;;;54.43;28.70;;;;;;;2.17;100.00;100110.47;4973148;28;20209;-70
2022/11/23 00:27:58;;;;;;;54.13;28.47;;;;;;;2.16;100.00;100116.28;4972622;28;20679;-70
2022/11/23 00:30:24;;;;;;;54.93;27.63;;;;;;;2.16;100.00;100113.78;4970851;28;20192;-70
2022/11/23 00:32:51;;;;;;;53.60;26.93;;;;;;;2.18;100.00;100109.66;4967507;28;20224;-70
2022/11/23 00:35:16;;;;;;;54.80;29.00;;;;;;;2.20;100.00;100112.25;4975178;28;20283;-70
2022/11/23 00:37:42;;;;;;;50.63;27.87;;;;;;;2.23;100.00;100115.75;4968185;28;20216;-70
2022/11/23 00:40:08;;;;;;;53.03;29.03;;;;;;;2.21;100.00;100109.75;4970452;28;20239;-70
2022/11/23 00:42:34;;;;;;;50.93;28.10;;;;;;;2.23;100.00;100107.31;4971227;28;20191;-70
2022/11/23 00:44:59;;;;;;;53.43;28.43;;;;;;;2.25;100.00;100116.66;4975937;28;20216;-70
2022/11/23 00:47:25;;;;;;;53.40;27.23;;;;;;;2.26;100.00;100117.53;4981239;28;21025;-70
2022/11/23 00:49:50;;;;;;;51.97;27.50;;;;;;;2.27;100.00;100120.13;4975421;28;20554;-70
2022/11/23 00:52:16;;;;;;;49.37;26.83;;;;;;;2.28;100.00;100121.84;4979365;28;20197;-70
2022/11/23 00:54:41;;;;;;;51.03;27.17;;;;;;;2.28;100.00;100105.81;4971946;28;20188;-70
2022/11/23 00:57:07;;;;;;;51.07;27.67;;;;;;;2.29;100.00;100107.56;4969953;28;20730;-70
2022/11/23 00:59:32;;;;;;;51.47;27.07;;;;;;;2.32;100.00;100105.16;4973964;28;20600;-70
2022/11/23 01:01:59;;;;;;;48.57;27.10;;;;;;;2.33;100.00;100110.25;4970982;28;20188;-70
2022/11/23 01:04:24;;;;;;;50.20;27.03;;;;;;;2.34;100.00;100106.09;4985492;28;20696;-70
2022/11/23 01:06:55;;;;;;;53.07;27.67;;;;;;;2.34;100.00;100108.63;4975510;28;20251;-70
2022/11/23 01:09:25;;;;;;;51.90;28.13;;;;;;;2.36;100.00;100115.44;4975706;28;20235;-70
2022/11/23 01:11:51;;;;;;;50.50;28.37;;;;;;;2.38;100.00;100110.44;4976054;28;20200;-70
2022/11/23 01:14:16;;;;;;;49.33;26.10;;;;;;;2.40;100.00;100111.38;4980702;28;20192;-70
2022/11/23 01:16:42;;;;;;;51.97;28.60;;;;;;;2.40;100.00;100118.94;4974676;28;20207;-70
2022/11/23 01:19:14;;;;;;;47.67;26.23;;;;;;;2.43;100.00;100116.56;4975916;28;20192;-70
2022/11/23 01:21:39;;;;;;;49.40;27.13;;;;;;;2.45;100.00;100104.84;4984375;28;20185;-70
2022/11/23 01:24:07;;;;;;;46.43;26.43;;;;;;;2.45;100.00;100102.31;4976980;28;20196;-70
2022/11/23 01:26:36;;;;;;;45.33;25.17;;;;;;;2.45;100.00;100107.34;4988508;28;20240;-70
2022/11/23 01:29:02;;;;;;;47.53;26.57;;;;;;;2.48;100.00;100110.00;4977497;28;20211;-70
2022/11/23 01:31:27;;;;;;;45.97;26.17;;;;;;;2.48;100.00;100118.44;4979474;28;20208;-70
2022/11/23 01:33:56;;;;;;;47.40;25.93;;;;;;;2.49;100.00;100109.22;4981319;28;20275;-70
2022/11/23 01:36:25;;;;;;;49.30;26.50;;;;;;;2.50;100.00;100103.34;4977519;28;20204;-70
2022/11/23 01:38:51;;;;;;;41.83;24.37;;;;;;;2.51;100.00;100094.97;4986757;28;20224;-70
2022/11/23 01:41:19;;;;;;;48.30;26.00;;;;;;;2.53;100.00;100101.78;4982788;28;20223;-70
2022/11/23 01:43:45;;;;;;;43.27;25.70;;;;;;;2.54;100.00;100101.00;4980268;28;20216;-70
2022/11/23 01:46:11;;;;;;;43.17;25.00;;;;;;;2.55;100.00;100100.19;4982534;28;20313;-70
2022/11/23 01:48:54;;;;;;;46.97;26.23;;;;;;;2.54;100.00;100095.97;4973016;28;20231;-70
2022/11/23 01:51:27;;;;;;;49.33;25.77;;;;;;;2.52;100.00;100100.06;4980089;28;20853;-70
2022/11/23 01:53:56;;;;;;;43.33;24.33;;;;;;;2.52;100.00;100100.06;4979366;28;20185;-70
2022/11/23 01:56:32;;;;;;;41.43;24.57;;;;;;;2.53;100.00;100104.31;4974575;28;20335;-70
2022/11/23 01:59:00;;;;;;;38.10;23.13;;;;;;;2.57;100.00;100108.69;4981742;28;20207;-70
2022/11/23 02:01:27;;;;;;;45.37;24.23;;;;;;;2.59;100.00;100112.16;4980614;28;20254;-70
2022/11/23 02:03:57;;;;;;;44.30;23.53;;;;;;;2.61;100.00;100109.66;4972177;28;20277;-70
2022/11/23 02:06:24;;;;;;;44.17;24.40;;;;;;;2.62;100.00;100107.19;4980651;28;20204;-70
2022/11/23 02:08:51;;;;;;;45.37;25.27;;;;;;;2.63;100.00;100106.44;4982048;28;20188;-71
2022/11/23 02:11:18;;;;;;;41.10;24.17;;;;;;;2.68;100.00;100109.09;4980687;28;20185;-70
2022/11/23 02:13:47;;;;;;;46.70;23.87;;;;;;;2.69;100.00;100110.81;4971517;28;21003;-70
2022/11/23 02:16:13;;;;;;;43.83;25.17;;;;;;;2.71;100.00;100112.59;4983983;28;20218;-70
2022/11/23 02:18:43;;;;;;;42.30;24.90;;;;;;;2.72;100.00;100119.38;4957027;28;20212;-70
2022/11/23 02:21:09;;;;;;;42.03;23.93;;;;;;;2.74;100.00;100125.38;4980489;28;20377;-70
2022/11/23 02:24:27;;;;;;;43.50;23.67;;;;;;;2.76;100.00;100116.16;4976911;28;20199;-70
2022/11/23 02:26:54;;;;;;;40.33;22.93;;;;;;;2.78;100.00;100113.72;4977995;28;20220;-70
2022/11/23 02:29:25;;;;;;;36.87;21.57;;;;;;;2.81;100.00;100101.19;4979353;28;20212;-70
2022/11/23 02:31:51;;;;;;;43.13;24.43;;;;;;;2.82;100.00;100113.91;4988515;28;20629;-70
2022/11/23 02:34:17;;;;;;;39.13;22.87;;;;;;;2.84;100.00;100113.94;4983449;28;20228;-70
2022/11/23 02:36:48;;;;;;;40.47;24.03;;;;;;;2.85;100.00;100115.69;4974687;28;20287;-70
2022/11/23 02:39:26;;;;;;;42.03;23.73;;;;;;;2.87;100.00;100109.00;4974638;28;20677;-70
2022/11/23 02:41:53;;;;;;;39.27;22.40;;;;;;;2.89;100.00;100109.94;4978432;28;20267;-70
2022/11/23 02:44:30;;;;;;;41.53;22.23;;;;;;;2.91;100.00;100103.25;4977966;28;20203;-70
2022/11/23 02:46:56;;;;;;;40.23;21.50;;;;;;;2.91;100.00;100108.31;4977451;28;20233;-70
2022/11/23 02:49:22;;;;;;;39.13;22.23;;;;;;;2.92;100.00;100107.50;4980618;28;20184;-71
2022/11/23 02:51:49;;;;;;;42.57;22.90;;;;;;;2.93;100.00;100109.22;4973537;28;20193;-70
2022/11/23 02:54:15;;;;;;;39.50;24.50;;;;;;;2.95;100.00;100105.94;4973010;28;20400;-70
2022/11/23 02:56:40;;;;;;;41.70;23.47;;;;;;;2.96;100.00;100099.22;4979713;28;20692;-70
2022/11/23 02:59:06;;;;;;;40.50;22.93;;;;;;;2.98;100.00;100102.66;4977013;28;20184;-70
2022/11/23 03:01:32;;;;;;;38.83;22.90;;;;;;;2.98;100.00;100106.06;4981704;28;20239;-70
2022/11/23 03:03:58;;;;;;;43.10;24.03;;;;;;;3.00;100.00;100098.53;4978645;28;20294;-70
2022/11/23 03:06:26;;;;;;;39.87;23.37;;;;;;;3.01;100.00;100105.31;4981924;28;20331;-70
2022/11/23 03:08:51;;;;;;;39.03;22.50;;;;;;;3.01;100.00;100102.78;4980672;28;20728;-71
2022/11/23 03:11:16;;;;;;;42.63;23.93;;;;;;;3.03;100.00;100101.19;4974752;28;20275;-71
2022/11/23 03:13:43;;;;;;;41.87;23.20;;;;;;;3.02;100.00;100104.50;4968024;28;20188;-71
2022/11/23 03:16:09;;;;;;;41.23;23.60;;;;;;;3.03;100.00;100104.56;4982178;28;20590;-71
2022/11/23 03:18:34;;;;;;;42.53;23.80;;;;;;;3.05;100.00;100100.44;4978979;28;20310;-71
2022/11/23 03:21:03;;;;;;;43.77;24.30;;;;;;;3.04;100.00;100103.75;4970942;28;20271;-71
2022/11/23 03:23:29;;;;;;;40.97;23.67;;;;;;;3.05;100.00;100109.69;4979589;28;20192;-71
2022/11/23 03:25:58;;;;;;;39.97;23.83;;;;;;;3.08;100.00;100113.19;4973359;28;20266;-71
2022/11/23 03:28:26;;;;;;;42.30;23.40;;;;;;;3.09;100.00;100111.53;4981176;28;20965;-71
2022/11/23 03:30:52;;;;;;;41.27;23.10;;;;;;;3.09;100.00;100107.31;4977521;28;20189;-71
2022/11/23 03:33:20;;;;;;;34.37;21.77;;;;;;;3.08;100.00;100105.59;4971428;28;20184;-71
2022/11/23 03:35:47;;;;;;;42.03;23.40;;;;;;;3.08;100.00;100104.75;4979836;28;20224;-71
2022/11/23 03:38:22;;;;;;;39.77;22.60;;;;;;;3.08;100.00;100113.19;4978356;28;20204;-71
2022/11/23 03:40:47;;;;;;;46.23;24.07;;;;;;;3.09;100.00;100097.19;4969156;28;20203;-71
2022/11/23 03:43:24;;;;;;;39.80;22.20;;;;;;;3.09;100.00;100102.25;4972886;28;20184;-71
2022/11/23 03:45:50;;;;;;;40.33;23.60;;;;;;;3.08;100.00;100103.06;4978852;28;20215;-71
2022/11/23 03:48:16;;;;;;;40.60;23.60;;;;;;;3.09;100.00;100114.91;4977601;28;20728;-71
2022/11/23 03:50:43;;;;;;;40.97;22.53;;;;;;;3.10;100.00;100118.28;4978760;28;20187;-71
2022/11/23 03:53:08;;;;;;;39.60;22.93;;;;;;;3.12;100.00;100116.69;4975338;28;20764;-71
2022/11/23 03:55:35;;;;;;;41.37;22.70;;;;;;;3.13;100.00;100120.94;4976189;28;20814;-71
2022/11/23 03:58:02;;;;;;;38.83;23.33;;;;;;;3.13;100.00;100126.00;4966896;28;20211;-71
2022/11/23 04:00:31;;;;;;;39.03;22.93;;;;;;;3.11;100.00;100120.00;4971148;28;20223;-71
2022/11/23 04:02:57;;;;;;;37.73;22.90;;;;;;;3.13;100.00;100111.69;4985417;28;20255;-71
2022/11/23 04:05:41;;;;;;;35.83;22.03;;;;;;;3.14;100.00;100108.38;4979515;28;20346;-71
2022/11/23 04:08:25;;;;;;;35.67;22.33;;;;;;;3.12;100.00;100099.84;4977686;28;20196;-70
2022/11/23 04:10:57;;;;;;;36.90;21.57;;;;;;;3.14;100.00;100103.31;4980533;28;20654;-71
2022/11/23 04:13:32;;;;;;;42.27;23.57;;;;;;;3.15;100.00;100096.56;4978477;28;20217;-71
2022/11/23 04:15:57;;;;;;;40.17;23.00;;;;;;;3.13;100.00;100101.56;4977303;28;20629;-71
2022/11/23 04:18:22;;;;;;;37.87;22.43;;;;;;;3.15;100.00;100091.50;4971304;28;20693;-71
2022/11/23 04:20:48;;;;;;;40.27;22.20;;;;;;;3.16;100.00;100095.75;4975562;28;20716;-71
2022/11/23 04:23:15;;;;;;;34.30;20.97;;;;;;;3.17;100.00;100105.09;4979982;28;20187;-71
2022/11/23 04:25:41;;;;;;;34.50;20.00;;;;;;;3.18;100.00;100102.59;4980850;28;20215;-71
2022/11/23 04:28:08;;;;;;;35.93;20.40;;;;;;;3.19;100.00;100106.00;4977284;28;20191;-71
2022/11/23 04:30:33;;;;;;;35.20;21.90;;;;;;;3.18;100.00;100111.88;4981252;28;20192;-71
2022/11/23 04:32:59;;;;;;;38.27;22.30;;;;;;;3.18;100.00;100111.88;4971005;28;20716;-71
2022/11/23 04:35:25;;;;;;;37.17;21.13;;;;;;;3.17;100.00;100115.19;4985792;28;20220;-71
2022/11/23 04:37:52;;;;;;;40.87;22.73;;;;;;;3.16;100.00;100106.75;4975965;28;20204;-71
2022/11/23 04:40:18;;;;;;;37.37;21.97;;;;;;;3.16;100.00;100108.41;4980543;28;20657;-71
2022/11/23 04:42:55;;;;;;;35.93;21.13;;;;;;;3.16;100.00;100101.69;4980313;28;20194;-71
2022/11/23 04:45:21;;;;;;;34.70;21.30;;;;;;;3.14;100.00;100104.97;4971671;28;20294;-71
2022/11/23 04:47:46;;;;;;;44.17;22.57;;;;;;;3.13;100.00;100103.25;4975563;28;20181;-71
2022/11/23 04:50:14;;;;;;;37.70;21.33;;;;;;;3.14;100.00;100104.97;4977695;28;20666;-71
2022/11/23 04:52:43;;;;;;;35.33;20.87;;;;;;;3.15;100.00;100101.63;4985045;28;20212;-71
2022/11/23 04:55:14;;;;;;;37.50;21.13;;;;;;;3.15;100.00;100104.16;4981417;28;20244;-70
2022/11/23 04:57:48;;;;;;;32.83;21.43;;;;;;;3.16;100.00;100100.81;4967753;28;20209;-71
2022/11/23 05:00:14;;;;;;;36.07;21.93;;;;;;;3.16;100.00;100106.75;4972790;28;20180;-71
2022/11/23 05:02:40;;;;;;;31.60;20.93;;;;;;;3.17;100.00;100105.09;4981585;28;20196;-71
2022/11/23 05:05:18;;;;;;;42.13;22.60;;;;;;;3.18;100.00;100104.28;4982951;28;20211;-71
2022/11/23 05:07:43;;;;;;;32.80;20.63;;;;;;;3.18;100.00;100110.16;4975602;28;20180;-70
2022/11/23 05:10:09;;;;;;;36.83;21.27;;;;;;;3.19;100.00;100111.91;4974069;28;20276;-71
2022/11/23 05:12:35;;;;;;;31.70;20.30;;;;;;;3.21;100.00;100109.41;4969617;28;20215;-71
2022/11/23 05:15:02;;;;;;;32.40;19.30;;;;;;;3.22;100.00;100113.69;4965444;28;20247;-71
2022/11/23 05:17:33;;;;;;;35.47;20.87;;;;;;;3.23;100.00;100112.88;4970406;28;20262;-71
2022/11/23 05:19:59;;;;;;;34.77;20.73;;;;;;;3.25;100.00;100114.66;4982312;28;20212;-71
2022/11/23 05:22:25;;;;;;;32.50;19.00;;;;;;;3.27;100.00;100117.25;4975863;28;20647;-71
2022/11/23 05:24:51;;;;;;;33.10;20.87;;;;;;;3.28;100.00;100113.91;4976417;28;20605;-72
2022/11/23 05:27:20;;;;;;;32.03;20.00;;;;;;;3.30;100.00;100117.34;4979321;28;20187;-71
2022/11/23 05:29:45;;;;;;;32.87;20.17;;;;;;;3.30;100.00;100109.75;4980232;28;20192;-71
2022/11/23 05:32:11;;;;;;;27.50;19.00;;;;;;;3.32;100.00;100113.22;4977713;28;20218;-71
2022/11/23 05:34:37;;;;;;;35.43;19.90;;;;;;;3.33;100.00;100105.69;4962650;28;20183;-71
2022/11/23 05:37:04;;;;;;;32.93;19.87;;;;;;;3.36;100.00;100108.31;4984556;28;20216;-71
2022/11/23 05:39:29;;;;;;;31.10;18.43;;;;;;;3.38;100.00;100108.38;4980687;28;20195;-71
2022/11/23 05:41:56;;;;;;;33.13;19.83;;;;;;;3.40;100.00;100110.16;4975563;28;20661;-71
2022/11/23 05:44:32;;;;;;;33.37;19.23;;;;;;;3.41;100.00;100113.53;4970959;28;20279;-71
2022/11/23 05:46:58;;;;;;;31.67;18.53;;;;;;;3.44;100.00;100113.63;4983368;28;20299;-71
2022/11/23 05:49:26;;;;;;;34.83;20.00;;;;;;;3.46;100.00;100112.91;4982042;28;20238;-71
2022/11/23 05:51:52;;;;;;;29.73;18.77;;;;;;;3.46;100.00;100110.38;4976093;28;20204;-71
2022/11/23 05:54:18;;;;;;;37.20;21.20;;;;;;;3.47;100.00;100108.69;4978574;28;20692;-71
2022/11/23 05:56:53;;;;;;;35.33;19.23;;;;;;;3.47;100.00;100117.16;4977167;28;20580;-71
2022/11/23 05:59:22;;;;;;;28.03;17.47;;;;;;;3.50;100.00;100116.41;4965704;28;20236;-71
2022/11/23 06:01:54;;;;;;;29.13;19.13;;;;;;;3.49;100.00;100115.53;4976678;28;20685;-71
2022/11/23 06:04:28;;;;;;;30.07;18.43;;;;;;;3.51;100.00;100113.06;4984218;28;20259;-71
2022/11/23 06:06:59;;;;;;;31.67;18.70;;;;;;;3.51;100.00;100116.47;4981426;28;20224;-71
2022/11/23 06:09:27;;;;;;;29.20;18.73;;;;;;;3.52;100.00;100110.59;4964508;28;20224;-71
2022/11/23 06:11:53;;;;;;;28.23;18.37;;;;;;;3.53;100.00;100117.38;4960805;28;20549;-71
2022/11/23 06:14:19;;;;;;;29.73;17.50;;;;;;;3.54;100.00;100118.25;4979924;28;20177;-71
2022/11/23 06:16:46;;;;;;;30.67;19.07;;;;;;;3.57;100.00;100120.84;4978278;28;20789;-71
2022/11/23 06:19:31;;;;;;;33.63;18.73;;;;;;;3.57;100.00;100123.38;4976082;28;20215;-71
2022/11/23 06:21:57;;;;;;;32.07;18.30;;;;;;;3.56;100.00;100122.53;4971002;28;23015;-70
2022/11/23 06:24:24;;;;;;;30.80;18.50;;;;;;;3.57;100.00;100119.19;4976143;28;20561;-71
2022/11/23 06:27:09;;;;;;;31.57;18.40;;;;;;;3.59;100.00;100126.84;4973626;28;20547;-71
2022/11/23 06:29:34;;;;;;;30.33;18.10;;;;;;;3.60;100.00;100126.03;4975798;28;20191;-71
2022/11/23 06:32:00;;;;;;;28.83;18.23;;;;;;;3.63;100.00;100129.53;4959502;28;20226;-71
2022/11/23 06:34:26;;;;;;;28.23;17.30;;;;;;;3.64;100.00;100130.41;4979459;28;20328;-71
2022/11/23 06:36:51;;;;;;;28.87;17.40;;;;;;;3.64;100.00;100130.41;4971355;28;20290;-71
2022/11/23 06:39:17;;;;;;;29.73;18.17;;;;;;;3.64;100.00;100141.38;4965642;28;20211;-71
2022/11/23 06:41:43;;;;;;;30.30;19.20;;;;;;;3.66;100.00;100137.25;4988729;28;20695;-72
2022/11/23 06:44:09;;;;;;;28.93;17.83;;;;;;;3.68;100.00;100140.66;4979328;28;20212;-72
2022/11/23 06:46:38;;;;;;;28.93;18.37;;;;;;;3.68;100.00;100133.06;4979286;28;20221;-71
2022/11/23 06:49:04;;;;;;;34.33;19.33;;;;;;;3.70;100.00;100135.66;4977039;28;20188;-71
2022/11/23 06:51:30;;;;;;;32.27;18.97;;;;;;;3.71;100.00;100137.38;4976602;28;20195;-71
2022/11/23 06:53:56;;;;;;;31.07;20.20;;;;;;;3.72;100.00;100132.38;4974186;28;20219;-71
2022/11/23 06:56:22;;;;;;;38.87;19.50;;;;;;;3.70;100.00;100140.72;4979793;28;20715;-71
2022/11/23 06:58:48;;;;;;;33.57;20.10;;;;;;;3.72;100.00;100139.13;4978900;28;20196;-72
2022/11/23 07:01:18;;;;;;;33.50;19.33;;;;;;;3.72;100.00;100136.59;4975306;28;20203;-72
2022/11/23 07:03:53;;;;;;;33.03;19.03;;;;;;;3.75;100.00;100142.63;4971142;28;20229;-72
2022/11/23 07:06:29;;;;;;;34.43;18.43;;;;;;;3.77;100.00;100145.22;4985504;28;20218;-72
2022/11/23 07:08:58;;;;;;;29.50;17.87;;;;;;;3.78;100.00;100145.22;4973095;28;20796;-71
2022/11/23 07:11:38;;;;;;;31.23;17.90;;;;;;;3.80;100.00;100148.69;4976095;28;20240;-71
2022/11/23 07:14:03;;;;;;;27.10;17.73;;;;;;;3.83;100.00;100153.00;4973710;28;20204;-71
2022/11/23 07:16:29;;;;;;;30.37;17.63;;;;;;;3.85;100.00;100156.44;4976423;28;20212;-71
2022/11/23 07:18:57;;;;;;;30.67;17.97;;;;;;;3.85;100.00;100154.78;4954730;28;20219;-71
2022/11/23 07:21:22;;;;;;;30.43;17.20;;;;;;;3.86;100.00;100156.50;4971092;28;20207;-71
2022/11/23 07:23:48;;;;;;;26.20;17.07;;;;;;;3.88;100.00;100159.97;4973846;28;20185;-71
2022/11/23 07:26:14;;;;;;;28.53;17.13;;;;;;;3.92;100.00;100153.31;4977465;28;20676;-71
2022/11/23 07:28:40;;;;;;;32.73;18.87;;;;;;;3.95;100.00;100153.44;4978113;28;20692;-71
2022/11/23 07:31:06;;;;;;;30.53;18.23;;;;;;;3.95;100.00;100154.28;4974894;28;20203;-71
2022/11/23 07:33:31;;;;;;;29.07;16.83;;;;;;;3.98;100.00;100159.47;4982334;28;20649;-71
2022/11/23 07:36:01;;;;;;;29.67;17.83;;;;;;;4.01;100.00;100158.69;4976168;28;20212;-71
2022/11/23 07:38:26;;;;;;;29.83;16.47;;;;;;;4.03;100.00;100160.47;4969926;28;20216;-73
2022/11/23 07:40:52;;;;;;;25.50;15.20;;;;;;;4.06;100.00;100164.78;4977148;28;20191;-73
2022/11/23 07:43:37;;;;;;;23.53;16.90;;;;;;;4.08;100.00;100158.97;4963021;28;20642;-73
2022/11/23 07:46:02;;;;;;;25.07;16.10;;;;;;;4.16;100.00;100161.75;4971722;28;20255;-73
2022/11/23 07:48:28;;;;;;;26.03;16.63;;;;;;;4.16;100.00;100164.28;4972117;28;20191;-73
2022/11/23 07:50:53;;;;;;;27.47;16.73;;;;;;;4.20;100.00;100166.09;4970536;28;20189;-73
2022/11/23 07:53:19;;;;;;;24.77;16.27;;;;;;;4.23;100.00;100171.28;4969088;28;20335;-73
2022/11/23 07:55:45;;;;;;;24.73;16.07;;;;;;;4.30;100.00;100165.59;4973467;28;20208;-73
2022/11/23 07:58:11;;;;;;;28.10;15.93;;;;;;;4.34;100.00;100167.41;4976449;28;20275;-73
2022/11/23 08:00:36;;;;;;;26.27;15.83;;;;;;;4.44;100.00;100171.97;4959753;28;20196;-73
2022/11/23 08:03:03;;;;;;;26.17;15.70;;;;;;;4.50;100.00;100175.56;4978805;28;20191;-73
2022/11/23 08:05:30;;;;;;;23.90;16.23;;;;;;;4.55;100.00;100174.03;4972615;28;20212;-73
2022/11/23 08:08:00;;;;;;;28.27;15.60;;;;;;;4.63;100.00;100175.16;4974747;28;20192;-73
2022/11/23 08:10:28;;;;;;;23.23;16.40;;;;;;;4.68;100.00;100172.75;4975551;28;20223;-73
2022/11/23 08:12:57;;;;;;;27.70;15.47;;;;;;;4.67;100.00;100173.56;4982133;28;20527;-73
2022/11/23 08:15:23;;;;;;;23.03;15.00;;;;;;;4.68;100.00;100182.88;4977519;28;20630;-73
2022/11/23 08:17:48;;;;;;;25.63;15.53;;;;;;;4.69;100.00;100190.53;4976746;28;20204;-72
2022/11/23 08:20:13;;;;;;;24.70;15.63;;;;;;;4.68;100.00;100183.75;4978070;28;20180;-73
2022/11/23 08:22:39;;;;;;;27.67;15.90;;;;;;;4.73;100.00;100184.75;4979708;28;20184;-73
2022/11/23 08:25:05;;;;;;;20.83;14.73;;;;;;;4.77;100.00;100180.66;4976625;28;20210;-73
2022/11/23 08:27:30;;;;;;;23.73;15.03;;;;;;;4.86;100.00;100178.41;4977494;28;20200;-73
2022/11/23 08:29:55;;;;;;;26.30;15.27;;;;;;;4.92;100.00;100187.06;4974447;28;20271;-72
2022/11/23 08:32:21;;;;;;;22.40;14.70;;;;;;;4.97;100.00;100177.91;4975917;28;20208;-72
2022/11/23 08:34:46;;;;;;;20.47;13.73;;;;;;;4.96;100.00;100181.28;4974743;28;20188;-72
2022/11/23 08:37:12;;;;;;;21.03;13.97;;;;;;;4.97;100.00;100184.69;4975957;28;20283;-73
2022/11/23 08:39:37;;;;;;;22.33;14.17;;;;;;;5.03;100.00;100174.72;4979994;28;20238;-73
2022/11/23 08:42:03;;;;;;;23.27;14.03;;;;;;;5.00;100.00;100180.56;4973901;28;20181;-72
2022/11/23 08:44:28;;;;;;;22.43;14.20;;;;;;;5.04;100.00;100182.38;4978216;28;20187;-72
2022/11/23 08:46:54;;;;;;;28.03;14.77;;;;;;;5.07;100.00;100181.59;4977552;28;20220;-72
2022/11/23 08:49:19;;;;;;;24.73;14.03;;;;;;;5.15;100.00;100182.69;4980127;28;20187;-72
2022/11/23 08:51:45;;;;;;;23.37;13.80;;;;;;;5.19;100.00;100189.56;4980548;28;20191;-72
2022/11/23 08:54:10;;;;;;;20.70;13.70;;;;;;;5.27;100.00;100183.91;4979839;28;20184;-72
2022/11/23 08:56:36;;;;;;;19.43;13.57;;;;;;;5.38;100.00;100184.25;4977672;28;20701;-72
2022/11/23 08:59:01;;;;;;;22.37;14.90;;;;;;;5.44;100.00;100175.09;4977962;28;20258;-72
2022/11/23 09:01:27;;;;;;;20.17;13.30;;;;;;;5.50;100.00;100177.81;4978198;28;20210;-72
2022/11/23 09:03:53;;;;;;;16.10;12.30;;;;;;;5.57;100.00;100177.16;4978349;28;20191;-73
2022/11/23 09:06:19;;;;;;;19.40;11.63;;;;;;;5.62;100.00;100177.31;4976183;28;20290;-72
2022/11/23 09:08:44;;;;;;;20.53;12.80;;;;;;;5.74;100.00;100182.72;4974129;28;20354;-73
2022/11/23 09:11:12;;;;;;;18.30;11.83;;;;;;;5.86;100.00;100183.09;4952709;28;20669;-73
2022/11/23 09:13:38;;;;;;;19.57;11.17;;;;;;;5.94;100.00;100181.63;4973176;28;20191;-73
2022/11/23 09:16:05;;;;;;;16.00;10.50;;;;;;;5.96;100.00;100185.06;4972694;28;20219;-72
2022/11/23 09:18:32;;;;;;;20.30;10.23;;;;;;;5.98;100.00;100179.19;4981023;28;20244;-73
2022/11/23 09:20:58;;;;;;;19.73;10.30;;;;;;;6.01;100.00;100188.56;4972190;28;20284;-72
2022/11/23 09:23:25;;;;;;;17.97;11.03;;;;;;;6.11;100.00;100186.31;4978439;28;20235;-72
2022/11/23 09:25:51;;;;;;;15.80;10.90;;;;;;;6.30;100.00;100180.00;4985124;28;20227;-73
2022/11/23 09:28:18;;;;;;;18.50;11.17;;;;;;;6.43;100.00;100179.50;4972686;28;20188;-72
2022/11/23 09:30:47;;;;;;;16.60;10.90;;;;;;;6.77;100.00;100177.81;4973296;28;20228;-72
2022/11/23 09:33:13;;;;;;;15.60;9.60;;;;;;;6.98;99.51;100185.09;4976256;28;20192;-73
2022/11/23 09:35:39;;;;;;;13.97;8.83;;;;;;;7.09;98.42;100191.28;4974237;28;20221;-73
2022/11/23 09:38:05;;;;;;;16.00;9.80;;;;;;;7.34;97.25;100191.88;4981333;28;20231;-72
2022/11/23 09:40:36;;;;;;;16.90;9.93;;;;;;;7.75;95.88;100193.59;4977234;28;20189;-73
2022/11/23 09:43:16;;;;;;;17.13;10.17;;;;;;;8.04;95.19;100192.44;4975767;28;20239;-73
2022/11/23 09:45:53;;;;;;;12.60;8.17;;;;;;;8.49;90.18;100192.44;4973906;28;20712;-73
2022/11/23 09:48:34;;;;;;;12.83;7.60;;;;;;;8.25;92.05;100200.50;4981222;28;20270;-73
2022/11/23 09:51:17;;;;;;;13.27;8.90;;;;;;;8.15;92.10;100192.66;4979666;28;20200;-73
2022/11/23 09:54:08;;;;;;;15.70;8.73;;;;;;;7.92;91.94;100199.84;4981634;28;20235;-73
2022/11/23 09:56:37;;;;;;;13.20;8.33;;;;;;;7.67;93.64;100196.78;4978555;28;20228;-72
2022/11/23 09:59:35;;;;;;;13.93;8.73;;;;;;;7.48;94.85;100197.25;4973225;28;20223;-72
2022/11/23 10:02:01;;;;;;;12.90;8.37;;;;;;;7.61;95.33;100194.97;4962200;28;20288;-71
2022/11/23 10:04:33;;;;;;;12.80;8.27;;;;;;;7.62;95.07;100203.47;4975345;28;20200;-71
2022/11/23 10:07:24;;;;;;;10.27;7.10;;;;;;;7.66;95.53;100202.72;4975775;28;20274;-72
2022/11/23 10:10:15;;;;;;;13.93;8.20;;;;;;;7.50;96.32;100193.91;4973793;28;20212;-72
2022/11/23 10:12:50;;;;;;;14.23;8.00;;;;;;;7.55;97.24;100196.56;4972566;28;20970;-71
2022/11/23 10:15:22;;;;;;;14.93;8.63;;;;;;;7.65;96.25;100198.47;4969315;28;20230;-72
2022/11/23 10:18:02;;;;;;;10.50;7.93;;;;;;;7.87;95.95;100206.53;4974516;28;20339;-71
2022/11/23 10:20:40;;;;;;;11.30;8.03;;;;;;;8.21;94.99;100205.53;4968144;28;20335;-72
2022/11/23 10:23:28;;;;;;;11.73;7.73;;;;;;;8.67;92.82;100201.22;4975617;28;20188;-72
2022/11/23 10:25:53;;;;;;;16.20;8.67;;;;;;;8.75;91.95;100197.13;4981483;28;20220;-72
2022/11/23 10:28:21;;;;;;;15.63;8.20;;;;;;;8.59;91.46;100201.94;4977860;28;20169;-71
2022/11/23 10:31:03;;;;;;;12.53;7.63;;;;;;;8.48;92.89;100203.47;4976923;28;20262;-74
2022/11/23 10:33:40;;;;;;;14.33;8.23;;;;;;;8.42;92.62;100205.91;4972581;28;20725;-74
2022/11/23 10:36:09;;;;;;;14.53;9.00;;;;;;;8.45;93.30;100204.28;4976661;28;20323;-74
2022/11/23 10:38:35;;;;;;;13.80;7.50;;;;;;;8.16;93.76;100204.56;4973202;28;20573;-74
2022/11/23 10:41:06;;;;;;;13.07;8.37;;;;;;;8.23;93.91;100207.28;4972998;28;20192;-73
2022/11/23 10:43:36;;;;;;;16.00;7.67;;;;;;;8.24;93.69;100203.88;4972482;28;20193;-74
2022/11/23 10:46:36;;;;;;;9.70;6.43;;;;;;;8.17;93.19;100206.28;4971269;28;20216;-74
2022/11/23 10:49:19;;;;;;;9.77;5.93;;;;;;;8.13;92.71;100207.03;4977940;28;20217;-74
2022/11/23 10:52:04;;;;;;;11.23;6.33;;;;;;;8.14;92.60;100204.53;4972410;28;20188;-73
2022/11/23 10:54:33;;;;;;;8.80;5.80;;;;;;;8.31;92.16;100198.09;4975090;28;20750;-74
2022/11/23 10:57:01;;;;;;;10.97;5.93;;;;;;;8.33;92.67;100196.41;4973626;28;20220;-72
2022/11/23 10:59:28;;;;;;;9.77;5.97;;;;;;;8.30;92.23;100205.69;4979550;28;20204;-71
2022/11/23 11:02:14;;;;;;;11.97;5.87;;;;;;;8.31;93.16;100202.31;4967619;28;20252;-72
2022/11/23 11:04:40;;;;;;;10.03;6.10;;;;;;;8.21;92.77;100211.47;4986694;28;20212;-72
2022/11/23 11:07:18;;;;;;;9.37;6.23;;;;;;;8.17;92.95;100208.81;4971756;28;20203;-72
2022/11/23 11:09:54;;;;;;;10.20;6.00;;;;;;;8.12;93.01;100206.22;4969365;28;20188;-71
2022/11/23 11:12:20;;;;;;;10.83;6.50;;;;;;;8.16;93.03;100207.13;4968309;28;20259;-72
2022/11/23 11:15:08;;;;;;;9.93;6.30;;;;;;;8.16;92.87;100210.50;4980065;28;20349;-72
2022/11/23 11:17:34;;;;;;;9.80;5.87;;;;;;;8.18;92.95;100210.53;4972738;28;20203;-72
2022/11/23 11:20:30;;;;;;;10.30;6.00;;;;;;;8.16;93.52;100199.47;4974012;28;20196;-72